createdAt,value
2024-02-03T00:00:47.206Z,9.39
2024-02-03T00:01:47.184Z,9.37
2024-02-03T00:02:47.134Z,9.37
2024-02-03T00:03:47.169Z,9.37
2024-02-03T00:04:47.130Z,9.39
2024-02-03T00:05:47.152Z,9.40
2024-02-03T00:06:47.173Z,9.40
2024-02-03T00:07:47.089Z,9.41
2024-02-03T00:08:47.050Z,9.43
2024-02-03T00:09:47.130Z,9.43
2024-02-03T00:10:47.065Z,9.47
2024-02-03T00:11:47.032Z,9.50
2024-02-03T00:12:47.036Z,9.48
2024-02-03T00:13:46.998Z,9.48
2024-02-03T00:14:47.004Z,9.48
2024-02-03T00:15:47.125Z,9.48
2024-02-03T00:16:46.979Z,9.46
2024-02-03T00:17:47.018Z,9.48
2024-02-03T00:18:46.968Z,9.48
2024-02-03T00:19:47.049Z,9.47
2024-02-03T00:20:46.926Z,9.46
2024-02-03T00:21:47.028Z,9.46
2024-02-03T00:22:46.999Z,9.43
2024-02-03T00:23:46.907Z,9.41
2024-02-03T00:24:46.942Z,9.41
2024-02-03T00:25:46.877Z,9.39
2024-02-03T00:26:46.866Z,9.39
2024-02-03T00:27:46.898Z,9.41
2024-02-03T00:28:46.867Z,9.41
2024-02-03T00:29:46.814Z,9.41
2024-02-03T00:30:46.883Z,9.39
2024-02-03T00:31:46.795Z,9.41
2024-02-03T00:32:46.816Z,9.40
2024-02-03T00:33:46.920Z,9.40
2024-02-03T00:34:46.884Z,9.37
2024-02-03T00:35:46.758Z,9.36
2024-02-03T00:36:46.831Z,9.39
2024-02-03T00:37:46.753Z,9.34
2024-02-03T00:38:46.756Z,9.34
2024-02-03T00:39:46.791Z,9.34
2024-02-03T00:40:46.716Z,9.29
2024-02-03T00:41:46.700Z,9.28
2024-02-03T00:42:46.765Z,9.23
2024-02-03T00:43:46.681Z,9.21
2024-02-03T00:44:46.680Z,9.18
2024-02-03T00:45:46.723Z,9.16
2024-02-03T00:46:46.649Z,9.13
2024-02-03T00:47:46.700Z,9.11
2024-02-03T00:48:46.724Z,9.11
2024-02-03T00:49:46.779Z,9.11
2024-02-03T00:50:46.615Z,9.14
2024-02-03T00:51:46.697Z,9.16
2024-02-03T00:52:46.595Z,9.14
2024-02-03T00:53:46.576Z,9.18
2024-02-03T00:54:46.719Z,9.19
2024-02-03T00:55:46.577Z,9.21
2024-02-03T00:56:46.594Z,9.23
2024-02-03T00:57:46.616Z,9.22
2024-02-03T00:58:46.522Z,9.22
2024-02-03T00:59:46.544Z,9.23
2024-02-03T01:00:46.585Z,9.21
2024-02-03T01:01:46.567Z,9.18
2024-02-03T01:02:46.538Z,9.18
2024-02-03T01:03:46.557Z,9.16
2024-02-03T01:04:46.517Z,9.14
2024-02-03T01:05:46.535Z,9.13
2024-02-03T01:06:46.527Z,9.16
2024-02-03T01:07:46.425Z,9.18
2024-02-03T01:08:46.416Z,9.19
2024-02-03T01:09:46.459Z,9.22
2024-02-03T01:10:46.417Z,9.23
2024-02-03T01:11:46.411Z,9.19
2024-02-03T01:12:46.479Z,9.14
2024-02-03T01:13:46.410Z,9.16
2024-02-03T01:14:46.351Z,9.13
2024-02-03T01:15:46.507Z,9.13
2024-02-03T01:16:46.341Z,9.04
2024-02-03T01:17:46.370Z,9.02
2024-02-03T01:18:46.399Z,8.99
2024-02-03T01:19:46.480Z,8.94
2024-02-03T01:20:46.320Z,8.94
2024-02-03T01:21:46.354Z,8.88
2024-02-03T01:22:46.277Z,8.89
2024-02-03T01:23:46.267Z,8.87
2024-02-03T01:24:46.313Z,8.85
2024-02-03T01:25:46.239Z,8.82
2024-02-03T01:26:46.240Z,8.84
2024-02-03T01:27:46.290Z,8.87
2024-02-03T01:28:46.222Z,8.85
2024-02-03T01:29:46.220Z,8.85
2024-02-03T01:30:46.265Z,8.85
2024-02-03T01:31:46.182Z,8.84
2024-02-03T01:32:46.202Z,8.82
2024-02-03T01:33:46.245Z,8.81
2024-02-03T01:34:46.226Z,8.78
2024-02-03T01:35:46.128Z,8.78
2024-02-03T01:36:46.192Z,8.81
2024-02-03T01:37:46.107Z,8.82
2024-02-03T01:38:46.131Z,8.81
2024-02-03T01:39:46.132Z,8.81
2024-02-03T01:40:46.084Z,8.84
2024-02-03T01:41:46.060Z,8.81
2024-02-03T01:42:46.135Z,8.82
2024-02-03T01:43:46.063Z,8.82
2024-02-03T01:44:46.035Z,8.81
2024-02-03T01:45:46.071Z,8.79
2024-02-03T01:46:46.023Z,8.76
2024-02-03T01:47:46.029Z,8.76
2024-02-03T01:48:46.063Z,8.76
2024-02-03T01:49:46.164Z,8.76
2024-02-03T01:50:45.978Z,8.76
2024-02-03T01:51:46.006Z,8.78
2024-02-03T01:52:45.970Z,8.78
2024-02-03T01:53:45.936Z,8.73
2024-02-03T01:54:45.982Z,8.69
2024-02-03T01:55:45.920Z,8.69
2024-02-03T01:56:45.951Z,8.69
2024-02-03T01:57:46.170Z,8.64
2024-02-03T01:58:45.887Z,8.64
2024-02-03T01:59:45.905Z,8.58
2024-02-03T02:00:45.934Z,8.61
2024-02-03T02:01:45.924Z,8.56
2024-02-03T02:02:45.893Z,8.60
2024-02-03T02:03:45.990Z,8.60
2024-02-03T02:04:45.843Z,8.64
2024-02-03T02:05:45.900Z,8.66
2024-02-03T02:06:46.015Z,8.66
2024-02-03T02:07:45.819Z,8.67
2024-02-03T02:08:45.784Z,8.64
2024-02-03T02:09:45.823Z,8.58
2024-02-03T02:10:45.759Z,8.55
2024-02-03T02:11:45.765Z,8.60
2024-02-03T02:12:45.780Z,8.58
2024-02-03T02:13:45.722Z,8.60
2024-02-03T02:14:45.764Z,8.56
2024-02-03T02:15:45.806Z,8.60
2024-02-03T02:16:45.709Z,8.66
2024-02-03T02:17:45.705Z,8.69
2024-02-03T02:18:45.815Z,8.66
2024-02-03T02:19:45.798Z,8.66
2024-02-03T02:20:45.672Z,8.69
2024-02-03T02:21:45.717Z,8.66
2024-02-03T02:22:45.636Z,8.66
2024-02-03T02:23:45.619Z,8.63
2024-02-03T02:24:45.681Z,8.61
2024-02-03T02:25:45.610Z,8.61
2024-02-03T02:26:45.597Z,8.53
2024-02-03T02:27:45.653Z,8.51
2024-02-03T02:28:45.569Z,8.48
2024-02-03T02:29:45.567Z,8.46
2024-02-03T02:30:45.685Z,8.46
2024-02-03T02:31:45.538Z,8.51
2024-02-03T02:32:45.593Z,8.52
2024-02-03T02:33:45.589Z,8.48
2024-02-03T02:34:45.584Z,8.55
2024-02-03T02:35:45.491Z,8.55
2024-02-03T02:36:45.590Z,8.53
2024-02-03T02:37:45.468Z,8.51
2024-02-03T02:38:45.467Z,8.49
2024-02-03T02:39:45.512Z,8.48
2024-02-03T02:40:45.438Z,8.46
2024-02-03T02:41:45.425Z,8.45
2024-02-03T02:42:45.434Z,8.49
2024-02-03T02:43:45.435Z,8.46
2024-02-03T02:44:45.419Z,8.48
2024-02-03T02:45:45.472Z,8.46
2024-02-03T02:46:45.368Z,8.48
2024-02-03T02:47:45.391Z,8.45
2024-02-03T02:48:45.408Z,8.48
2024-02-03T02:49:45.435Z,8.48
2024-02-03T02:50:45.338Z,8.49
2024-02-03T02:51:45.369Z,8.55
2024-02-03T02:52:45.308Z,8.58
2024-02-03T02:53:45.335Z,8.56
2024-02-03T02:54:45.373Z,8.55
2024-02-03T02:55:45.279Z,8.58
2024-02-03T02:56:45.270Z,8.56
2024-02-03T02:57:45.351Z,8.58
2024-02-03T02:58:45.261Z,8.56
2024-02-03T02:59:45.253Z,8.61
2024-02-03T03:00:45.306Z,8.61
2024-02-03T03:01:45.238Z,8.60
2024-02-03T03:02:45.221Z,8.60
2024-02-03T03:03:45.237Z,8.56
2024-02-03T03:04:45.262Z,8.51
2024-02-03T03:05:45.175Z,8.53
2024-02-03T03:06:45.208Z,8.56
2024-02-03T03:07:45.265Z,8.55
2024-02-03T03:08:45.134Z,8.55
2024-02-03T03:09:45.178Z,8.52
2024-02-03T03:10:45.110Z,8.49
2024-02-03T03:11:45.136Z,8.53
2024-02-03T03:12:45.130Z,8.53
2024-02-03T03:13:45.107Z,8.60
2024-02-03T03:14:45.112Z,8.60
2024-02-03T03:15:45.129Z,8.63
2024-02-03T03:16:45.079Z,8.74
2024-02-03T03:17:45.081Z,8.82
2024-02-03T03:18:45.212Z,8.84
2024-02-03T03:19:45.279Z,8.84
2024-02-03T03:20:45.009Z,8.81
2024-02-03T03:21:45.098Z,8.79
2024-02-03T03:22:45.003Z,8.81
2024-02-03T03:23:45.058Z,8.81
2024-02-03T03:24:45.072Z,8.79
2024-02-03T03:25:44.996Z,8.91
2024-02-03T03:26:45.036Z,8.92
2024-02-03T03:27:45.004Z,8.89
2024-02-03T03:28:44.930Z,8.88
2024-02-03T03:29:44.925Z,8.89
2024-02-03T03:30:45.563Z,8.84
2024-02-03T03:31:44.910Z,8.81
2024-02-03T03:32:44.936Z,8.79
2024-02-03T03:33:45.056Z,8.76
2024-02-03T03:34:44.916Z,8.74
2024-02-03T03:35:44.886Z,8.69
2024-02-03T03:36:44.949Z,8.69
2024-02-03T03:37:44.841Z,8.69
2024-02-03T03:38:44.837Z,8.66
2024-02-03T03:39:44.864Z,8.64
2024-02-03T03:40:44.821Z,8.64
2024-02-03T03:41:44.806Z,8.66
2024-02-03T03:42:44.838Z,8.66
2024-02-03T03:43:44.786Z,8.64
2024-02-03T03:44:44.774Z,8.66
2024-02-03T03:45:44.823Z,8.71
2024-02-03T03:46:44.732Z,8.81
2024-02-03T03:47:44.739Z,8.85
2024-02-03T03:48:44.776Z,8.85
2024-02-03T03:49:44.824Z,8.87
2024-02-03T03:50:44.720Z,8.87
2024-02-03T03:51:44.736Z,8.91
2024-02-03T03:52:44.680Z,8.95
2024-02-03T03:53:44.710Z,8.92
2024-02-03T03:54:47.314Z,8.87
2024-02-03T03:55:44.672Z,8.84
2024-02-03T03:56:44.637Z,8.79
2024-02-03T03:57:44.674Z,8.76
2024-02-03T03:58:44.685Z,8.79
2024-02-03T03:59:44.594Z,8.88
2024-02-03T04:00:44.750Z,8.92
2024-02-03T04:01:44.615Z,8.92
2024-02-03T04:02:44.636Z,8.91
2024-02-03T04:03:44.603Z,8.89
2024-02-03T04:04:44.610Z,8.91
2024-02-03T04:05:44.580Z,8.95
2024-02-03T04:06:44.540Z,8.92
2024-02-03T04:07:44.559Z,8.89
2024-02-03T04:08:44.516Z,8.82
2024-02-03T04:09:44.554Z,8.76
2024-02-03T04:10:44.484Z,8.70
2024-02-03T04:11:44.482Z,8.64
2024-02-03T04:12:44.486Z,8.58
2024-02-03T04:13:44.457Z,8.52
2024-02-03T04:14:44.436Z,8.52
2024-02-03T04:15:44.468Z,8.46
2024-02-03T04:16:44.418Z,8.46
2024-02-03T04:17:44.436Z,8.42
2024-02-03T04:18:44.499Z,8.41
2024-02-03T04:19:44.610Z,8.41
2024-02-03T04:20:44.372Z,8.37
2024-02-03T04:21:44.447Z,8.38
2024-02-03T04:22:44.420Z,8.37
2024-02-03T04:23:44.352Z,8.33
2024-02-03T04:24:44.342Z,8.30
2024-02-03T04:25:44.328Z,8.30
2024-02-03T04:26:44.340Z,8.30
2024-02-03T04:27:44.384Z,8.30
2024-02-03T04:28:44.291Z,8.26
2024-02-03T04:29:46.524Z,8.28
2024-02-03T04:30:44.320Z,8.23
2024-02-03T04:31:44.288Z,8.20
2024-02-03T04:32:44.281Z,8.19
2024-02-03T04:33:44.325Z,8.19
2024-02-03T04:34:44.308Z,8.18
2024-02-03T04:35:44.241Z,8.19
2024-02-03T04:36:44.238Z,8.23
2024-02-03T04:37:44.206Z,8.19
2024-02-03T04:38:44.187Z,8.23
2024-02-03T04:39:44.310Z,8.27
2024-02-03T04:40:44.192Z,8.24
2024-02-03T04:41:44.170Z,8.20
2024-02-03T04:42:44.202Z,8.23
2024-02-03T04:43:44.147Z,8.19
2024-02-03T04:44:44.134Z,8.19
2024-02-03T04:45:44.200Z,8.16
2024-02-03T04:46:45.405Z,8.16
2024-02-03T04:47:44.273Z,8.18
2024-02-03T04:48:44.155Z,8.20
2024-02-03T04:49:44.246Z,8.23
2024-02-03T04:50:44.087Z,8.20
2024-02-03T04:51:44.105Z,8.18
2024-02-03T04:52:44.041Z,8.16
2024-02-03T04:53:44.068Z,8.19
2024-02-03T04:54:44.112Z,8.23
2024-02-03T04:55:44.025Z,8.26
2024-02-03T04:56:44.000Z,8.27
2024-02-03T04:57:44.060Z,8.24
2024-02-03T04:58:44.002Z,8.28
2024-02-03T04:59:44.004Z,8.31
2024-02-03T05:00:44.039Z,8.31
2024-02-03T05:01:44.007Z,8.30
2024-02-03T05:02:43.939Z,8.33
2024-02-03T05:03:44.054Z,8.31
2024-02-03T05:04:44.064Z,8.33
2024-02-03T05:05:43.962Z,8.34
2024-02-03T05:06:44.015Z,8.33
2024-02-03T05:07:43.905Z,8.34
2024-02-03T05:08:45.630Z,8.33
2024-02-03T05:09:43.953Z,8.33
2024-02-03T05:10:43.863Z,8.31
2024-02-03T05:11:43.855Z,8.31
2024-02-03T05:12:43.930Z,8.30
2024-02-03T05:13:44.133Z,8.34
2024-02-03T05:14:43.809Z,8.33
2024-02-03T05:15:43.851Z,8.31
2024-02-03T05:16:43.847Z,8.30
2024-02-03T05:17:43.917Z,8.33
2024-02-03T05:18:44.652Z,8.33
2024-02-03T05:19:43.852Z,8.31
2024-02-03T05:20:43.758Z,8.31
2024-02-03T05:21:43.833Z,8.30
2024-02-03T05:22:43.756Z,8.31
2024-02-03T05:23:43.730Z,8.28
2024-02-03T05:24:43.729Z,8.27
2024-02-03T05:25:43.711Z,8.28
2024-02-03T05:26:43.690Z,8.28
2024-02-03T05:27:43.795Z,8.28
2024-02-03T05:28:43.676Z,8.26
2024-02-03T05:29:43.673Z,8.26
2024-02-03T05:30:43.694Z,8.26
2024-02-03T05:31:43.677Z,8.26
2024-02-03T05:32:43.659Z,8.26
2024-02-03T05:33:43.762Z,8.26
2024-02-03T05:34:43.818Z,8.23
2024-02-03T05:35:43.600Z,8.23
2024-02-03T05:36:43.658Z,8.23
2024-02-03T05:37:43.586Z,8.23
2024-02-03T05:38:43.573Z,8.23
2024-02-03T05:39:43.598Z,8.24
2024-02-03T05:40:43.554Z,8.23
2024-02-03T05:41:43.554Z,8.23
2024-02-03T05:42:43.541Z,8.20
2024-02-03T05:43:43.525Z,8.20
2024-02-03T05:44:43.513Z,8.19
2024-02-03T05:45:43.542Z,8.18
2024-02-03T05:46:43.505Z,8.20
2024-02-03T05:47:43.508Z,8.24
2024-02-03T05:48:43.543Z,8.19
2024-02-03T05:49:43.514Z,8.19
2024-02-03T05:50:43.463Z,8.20
2024-02-03T05:51:43.473Z,8.19
2024-02-03T05:52:43.497Z,8.23
2024-02-03T05:53:43.414Z,8.24
2024-02-03T05:54:43.482Z,8.26
2024-02-03T05:55:43.427Z,8.24
2024-02-03T05:56:43.420Z,8.24
2024-02-03T05:57:43.387Z,8.24
2024-02-03T05:58:43.358Z,8.26
2024-02-03T05:59:48.648Z,8.24
2024-02-03T06:00:43.480Z,8.24
2024-02-03T06:01:43.393Z,8.27
2024-02-03T06:02:43.324Z,8.26
2024-02-03T06:03:43.387Z,8.30
2024-02-03T06:04:43.408Z,8.30
2024-02-03T06:05:58.468Z,8.30
2024-02-03T06:06:43.481Z,8.30
2024-02-03T06:07:43.408Z,8.30
2024-02-03T06:08:43.274Z,8.28
2024-02-03T06:09:43.367Z,8.28
2024-02-03T06:10:43.277Z,8.27
2024-02-03T06:11:43.251Z,8.27
2024-02-03T06:12:43.217Z,8.30
2024-02-03T06:13:43.238Z,8.31
2024-02-03T06:14:43.218Z,8.31
2024-02-03T06:15:43.245Z,8.28
2024-02-03T06:16:43.183Z,8.31
2024-02-03T06:17:43.252Z,8.28
2024-02-03T06:18:43.285Z,8.31
2024-02-03T06:19:44.328Z,8.31
2024-02-03T06:20:43.156Z,8.31
2024-02-03T06:21:43.220Z,8.34
2024-02-03T06:22:43.125Z,8.27
2024-02-03T06:23:43.139Z,8.31
2024-02-03T06:24:43.144Z,8.31
2024-02-03T06:25:43.356Z,8.33
2024-02-03T06:26:43.077Z,8.34
2024-02-03T06:27:43.139Z,8.37
2024-02-03T06:28:43.040Z,8.37
2024-02-03T06:29:43.007Z,8.34
2024-02-03T06:30:43.125Z,8.34
2024-02-03T06:31:43.033Z,8.36
2024-02-03T06:32:43.132Z,8.37
2024-02-03T06:33:43.253Z,8.34
2024-02-03T06:34:43.143Z,8.33
2024-02-03T06:35:43.005Z,8.33
2024-02-03T06:36:42.998Z,8.34
2024-02-03T06:37:42.960Z,8.36
2024-02-03T06:38:42.914Z,8.37
2024-02-03T06:39:42.996Z,8.38
2024-02-03T06:40:42.894Z,8.37
2024-02-03T06:41:42.913Z,8.37
2024-02-03T06:42:42.911Z,8.37
2024-02-03T06:43:42.862Z,8.38
2024-02-03T06:44:44.734Z,8.38
2024-02-03T06:45:42.871Z,8.37
2024-02-03T06:46:42.855Z,8.41
2024-02-03T06:47:42.873Z,8.42
2024-02-03T06:48:42.980Z,8.41
2024-02-03T06:49:42.961Z,8.41
2024-02-03T06:50:42.787Z,8.38
2024-02-03T06:51:42.858Z,8.41
2024-02-03T06:52:42.764Z,8.41
2024-02-03T06:53:42.758Z,8.41
2024-02-03T06:54:42.777Z,8.41
2024-02-03T06:55:42.765Z,8.38
2024-02-03T06:56:42.762Z,8.42
2024-02-03T06:57:42.789Z,8.38
2024-02-03T06:58:42.708Z,8.41
2024-02-03T06:59:42.689Z,8.37
2024-02-03T07:00:42.724Z,8.37
2024-02-03T07:01:42.726Z,8.36
2024-02-03T07:02:42.693Z,8.37
2024-02-03T07:03:42.680Z,8.36
2024-02-03T07:04:42.660Z,8.34
2024-02-03T07:05:42.657Z,8.34
2024-02-03T07:06:42.679Z,8.36
2024-02-03T07:07:42.621Z,8.33
2024-02-03T07:08:42.610Z,8.30
2024-02-03T07:09:42.659Z,8.30
2024-02-03T07:10:42.629Z,8.31
2024-02-03T07:11:52.429Z,8.31
2024-02-03T07:12:42.566Z,8.33
2024-02-03T07:13:42.564Z,8.30
2024-02-03T07:14:42.580Z,8.30
2024-02-03T07:15:42.582Z,8.31
2024-02-03T07:16:42.530Z,8.27
2024-02-03T07:17:42.544Z,8.28
2024-02-03T07:18:42.580Z,8.30
2024-02-03T07:19:42.693Z,8.28
2024-02-03T07:20:42.488Z,8.30
2024-02-03T07:21:42.496Z,8.30
2024-02-03T07:22:42.473Z,8.33
2024-02-03T07:23:42.452Z,8.33
2024-02-03T07:24:42.540Z,8.31
2024-02-03T07:25:42.441Z,8.38
2024-02-03T07:26:42.423Z,8.42
2024-02-03T07:27:42.437Z,8.44
2024-02-03T07:28:42.821Z,8.44
2024-02-03T07:29:42.396Z,8.42
2024-02-03T07:30:42.431Z,8.38
2024-02-03T07:31:42.366Z,8.42
2024-02-03T07:32:42.365Z,8.41
2024-02-03T07:33:42.469Z,8.42
2024-02-03T07:34:42.604Z,8.37
2024-02-03T07:35:42.367Z,8.38
2024-02-03T07:36:42.352Z,8.41
2024-02-03T07:37:42.317Z,8.36
2024-02-03T07:38:42.315Z,8.34
2024-02-03T07:39:42.332Z,8.33
2024-02-03T07:40:42.285Z,8.33
2024-02-03T07:41:42.265Z,8.31
2024-02-03T07:42:42.348Z,8.33
2024-02-03T07:43:42.232Z,8.33
2024-02-03T07:44:42.228Z,8.36
2024-02-03T07:45:42.267Z,8.34
2024-02-03T07:46:42.218Z,8.33
2024-02-03T07:47:42.226Z,8.33
2024-02-03T07:48:42.377Z,8.34
2024-02-03T07:49:42.270Z,8.41
2024-02-03T07:50:42.167Z,8.37
2024-02-03T07:51:42.217Z,8.36
2024-02-03T07:52:42.164Z,8.38
2024-02-03T07:53:42.166Z,8.37
2024-02-03T07:54:42.179Z,8.38
2024-02-03T07:55:42.109Z,8.37
2024-02-03T07:56:42.436Z,8.37
2024-02-03T07:57:42.145Z,8.36
2024-02-03T07:58:42.082Z,8.33
2024-02-03T07:59:42.060Z,8.34
2024-02-03T08:00:42.125Z,8.33
2024-02-03T08:01:42.656Z,8.34
2024-02-03T08:02:42.041Z,8.36
2024-02-03T08:03:42.144Z,8.41
2024-02-03T08:04:42.056Z,8.41
2024-02-03T08:05:42.751Z,8.41
2024-02-03T08:06:42.097Z,8.44
2024-02-03T08:07:42.010Z,8.41
2024-02-03T08:08:41.984Z,8.38
2024-02-03T08:09:42.006Z,8.44
2024-02-03T08:10:41.979Z,8.37
2024-02-03T08:11:41.952Z,8.38
2024-02-03T08:12:41.990Z,8.42
2024-02-03T08:13:41.910Z,8.42
2024-02-03T08:14:41.918Z,8.44
2024-02-03T08:15:41.915Z,8.48
2024-02-03T08:16:41.900Z,8.49
2024-02-03T08:17:41.952Z,8.55
2024-02-03T08:18:41.888Z,8.61
2024-02-03T08:19:41.940Z,8.63
2024-02-03T08:20:41.873Z,8.63
2024-02-03T08:21:41.868Z,8.61
2024-02-03T08:22:41.859Z,8.60
2024-02-03T08:23:41.799Z,8.63
2024-02-03T08:24:41.879Z,8.66
2024-02-03T08:25:41.788Z,8.67
2024-02-03T08:26:42.857Z,8.70
2024-02-03T08:27:41.836Z,8.69
2024-02-03T08:28:41.755Z,8.70
2024-02-03T08:29:41.776Z,8.71
2024-02-03T08:30:41.750Z,8.70
2024-02-03T08:31:41.802Z,8.70
2024-02-03T08:32:41.758Z,8.70
2024-02-03T08:33:41.882Z,8.69
2024-02-03T08:35:18.016Z,8.74
2024-02-03T08:35:41.803Z,8.76
2024-02-03T08:36:41.685Z,8.78
2024-02-03T08:37:41.683Z,8.84
2024-02-03T08:38:41.677Z,8.85
2024-02-03T08:40:41.635Z,8.85
2024-02-03T08:41:41.627Z,8.88
2024-02-03T08:42:41.699Z,8.85
2024-02-03T08:43:41.637Z,8.91
2024-02-03T08:44:41.596Z,8.91
2024-02-03T08:45:41.623Z,8.89
2024-02-03T08:46:41.576Z,8.94
2024-02-03T08:47:41.652Z,8.95
2024-02-03T08:48:41.707Z,9.10
2024-02-03T08:49:41.845Z,9.14
2024-02-03T08:50:41.535Z,9.16
2024-02-03T08:51:42.411Z,9.19
2024-02-03T08:52:41.545Z,9.19
2024-02-03T08:53:41.500Z,9.23
2024-02-03T08:54:41.514Z,9.22
2024-02-03T08:55:41.472Z,9.25
2024-02-03T08:56:41.462Z,9.28
2024-02-03T08:57:41.539Z,9.34
2024-02-03T08:58:41.480Z,9.34
2024-02-03T08:59:41.479Z,9.39
2024-02-03T09:00:41.617Z,9.39
2024-02-03T09:03:01.702Z,9.44
2024-02-03T09:03:54.820Z,9.44
2024-02-03T09:04:53.602Z,9.48
2024-02-03T09:05:53.653Z,9.50
2024-02-03T09:06:53.654Z,9.50
2024-02-03T09:07:53.591Z,9.50
2024-02-03T09:08:53.543Z,9.48
2024-02-03T09:09:53.541Z,9.43
2024-02-03T09:10:53.513Z,9.40
2024-02-03T09:11:53.546Z,9.43
2024-02-03T09:12:53.687Z,9.43
2024-02-03T09:13:53.500Z,9.40
2024-02-03T09:14:53.506Z,9.40
2024-02-03T09:15:53.646Z,9.40
2024-02-03T09:16:53.470Z,9.39
2024-02-03T09:17:53.513Z,9.41
2024-02-03T09:18:53.493Z,9.40
2024-02-03T09:19:53.568Z,9.40
2024-02-03T09:20:53.455Z,9.36
2024-02-03T09:21:53.449Z,9.36
2024-02-03T09:22:53.389Z,9.34
2024-02-03T09:23:53.417Z,9.31
2024-02-03T09:24:53.451Z,9.31
2024-02-03T09:25:53.380Z,9.31
2024-02-03T09:26:53.373Z,9.28
2024-02-03T09:27:53.343Z,9.28
2024-02-03T09:28:53.316Z,9.26
2024-02-03T09:29:53.334Z,9.25
2024-02-03T09:30:53.327Z,9.23
2024-02-03T09:31:54.132Z,9.23
2024-02-03T09:32:53.376Z,9.19
2024-02-03T09:33:53.434Z,9.19
2024-02-03T09:34:53.297Z,9.19
2024-02-03T09:35:53.261Z,9.18
2024-02-03T09:37:53.394Z,9.21
2024-02-03T09:38:53.207Z,9.18
2024-02-03T09:39:53.332Z,9.19
2024-02-03T09:40:53.204Z,9.19
2024-02-03T09:41:53.188Z,9.19
2024-02-03T09:42:53.284Z,9.18
2024-02-03T09:43:53.187Z,9.14
2024-02-03T09:44:53.171Z,9.14
2024-02-03T09:45:53.197Z,9.14
2024-02-03T09:46:53.133Z,9.11
2024-02-03T09:47:53.188Z,9.10
2024-02-03T09:48:53.211Z,9.08
2024-02-03T09:49:53.120Z,9.06
2024-02-03T09:50:53.090Z,9.04
2024-02-03T09:51:53.134Z,9.03
2024-02-03T09:52:53.065Z,9.04
2024-02-03T09:53:53.073Z,9.08
2024-02-03T09:54:53.131Z,9.10
2024-02-03T09:55:53.036Z,9.08
2024-02-03T09:56:53.030Z,9.10
2024-02-03T09:57:53.132Z,9.10
2024-02-03T09:58:53.018Z,9.11
2024-02-03T09:59:52.986Z,9.11
2024-02-03T10:00:53.053Z,9.13
2024-02-03T10:01:52.987Z,9.16
2024-02-03T10:02:53.119Z,9.18
2024-02-03T10:03:53.023Z,9.21
2024-02-03T10:04:52.960Z,9.23
2024-02-03T10:05:52.939Z,9.21
2024-02-03T10:06:52.925Z,9.23
2024-02-03T10:07:52.914Z,9.26
2024-02-03T10:08:52.905Z,9.26
2024-02-03T10:10:52.942Z,9.31
2024-02-03T10:11:53.136Z,9.32
2024-02-03T10:12:52.919Z,9.31
2024-02-03T10:13:52.862Z,9.34
2024-02-03T10:14:52.843Z,9.36
2024-02-03T10:15:52.884Z,9.39
2024-02-03T10:16:52.828Z,9.39
2024-02-03T10:17:52.854Z,9.39
2024-02-03T10:18:52.890Z,9.40
2024-02-03T10:19:52.860Z,9.39
2024-02-03T10:20:52.865Z,9.36
2024-02-03T10:21:52.824Z,9.34
2024-02-03T10:22:52.762Z,9.34
2024-02-03T10:23:52.761Z,9.31
2024-02-03T10:24:52.830Z,9.34
2024-02-03T10:25:52.741Z,9.34
2024-02-03T10:26:52.713Z,9.34
2024-02-03T10:27:52.719Z,9.36
2024-02-03T10:28:52.673Z,9.36
2024-02-03T10:29:52.676Z,9.34
2024-02-03T10:30:52.711Z,9.32
2024-02-03T10:31:52.660Z,9.36
2024-02-03T10:32:52.672Z,9.36
2024-02-03T10:33:52.685Z,9.32
2024-02-03T10:34:52.702Z,9.31
2024-02-03T10:35:52.642Z,9.31
2024-02-03T10:36:52.657Z,9.28
2024-02-03T10:37:52.612Z,9.28
2024-02-03T10:38:52.579Z,9.26
2024-02-03T10:39:52.771Z,9.26
2024-02-03T10:40:52.577Z,9.22
2024-02-03T10:41:52.544Z,9.22
2024-02-03T10:42:52.558Z,9.26
2024-02-03T10:43:52.529Z,9.29
2024-02-03T10:44:52.536Z,9.28
2024-02-03T10:45:52.545Z,9.29
2024-02-03T10:46:52.591Z,9.29
2024-02-03T10:47:52.556Z,9.31
2024-02-03T10:48:52.565Z,9.28
2024-02-03T10:49:52.656Z,9.26
2024-02-03T10:50:52.470Z,9.26
2024-02-03T10:51:52.546Z,9.25
2024-02-03T10:52:52.422Z,9.23
2024-02-03T10:53:52.447Z,9.23
2024-02-03T10:54:52.491Z,9.23
2024-02-03T10:55:52.413Z,9.21
2024-02-03T10:56:52.382Z,9.19
2024-02-03T10:57:52.435Z,9.21
2024-02-03T10:58:52.375Z,9.18
2024-02-03T10:59:52.540Z,9.16
2024-02-03T11:00:52.405Z,9.16
2024-02-03T11:01:52.348Z,9.16
2024-02-03T11:02:52.323Z,9.14
2024-02-03T11:03:52.517Z,9.14
2024-02-03T11:04:52.396Z,9.16
2024-02-03T11:05:52.320Z,9.21
2024-02-03T11:06:52.355Z,9.18
2024-02-03T11:07:52.794Z,9.21
2024-02-03T11:08:52.394Z,9.19
2024-02-03T11:09:52.265Z,9.21
2024-02-03T11:10:52.233Z,9.21
2024-02-03T11:11:52.242Z,9.22
2024-02-03T11:12:52.318Z,9.22
2024-02-03T11:13:52.204Z,9.21
2024-02-03T11:14:52.184Z,9.25
2024-02-03T11:15:52.258Z,9.22
2024-02-03T11:16:52.199Z,9.22
2024-02-03T11:17:52.217Z,9.23
2024-02-03T11:18:52.290Z,9.22
2024-02-03T11:19:52.448Z,9.23
2024-02-03T11:20:52.132Z,9.22
2024-02-03T11:21:52.165Z,9.23
2024-02-03T11:22:52.134Z,9.22
2024-02-03T11:23:52.124Z,9.21
2024-02-03T11:24:52.149Z,9.22
2024-02-03T11:25:52.077Z,9.21
2024-02-03T11:26:52.104Z,9.21
2024-02-03T11:27:52.083Z,9.19
2024-02-03T11:28:52.043Z,9.21
2024-02-03T11:29:52.033Z,9.21
2024-02-03T11:30:52.089Z,9.22
2024-02-03T11:31:52.027Z,9.26
2024-02-03T11:32:52.067Z,9.28
2024-02-03T11:33:52.133Z,9.23
2024-02-03T11:34:52.001Z,9.25
2024-02-03T11:35:52.006Z,9.26
2024-02-03T11:36:51.997Z,9.29
2024-02-03T11:37:51.951Z,9.39
2024-02-03T11:38:51.931Z,9.36
2024-02-03T11:39:52.079Z,9.34
2024-02-03T11:40:51.974Z,9.37
2024-02-03T11:41:51.903Z,9.41
2024-02-03T11:42:51.980Z,9.40
2024-02-03T11:43:52.309Z,9.39
2024-02-03T11:44:51.902Z,9.37
2024-02-03T11:45:51.959Z,9.34
2024-02-03T11:46:51.864Z,9.37
2024-02-03T11:47:51.913Z,9.37
2024-02-03T11:48:51.919Z,9.40
2024-02-03T11:49:52.068Z,9.40
2024-02-03T11:50:51.837Z,9.43
2024-02-03T11:51:51.822Z,9.51
2024-02-03T11:52:51.802Z,9.50
2024-02-03T11:53:51.764Z,9.55
2024-02-03T11:54:51.890Z,9.55
2024-02-03T11:55:52.494Z,9.58
2024-02-03T11:56:51.785Z,9.56
2024-02-03T11:57:51.799Z,9.51
2024-02-03T11:58:51.731Z,9.48
2024-02-03T11:59:51.734Z,9.56
2024-02-03T12:00:51.743Z,9.58
2024-02-03T12:01:51.694Z,9.59
2024-02-03T12:02:51.712Z,9.65
2024-02-03T12:03:51.700Z,9.65
2024-02-03T12:04:51.724Z,9.66
2024-02-03T12:05:51.640Z,9.62
2024-02-03T12:06:51.719Z,9.61
2024-02-03T12:07:51.654Z,9.65
2024-02-03T12:08:51.667Z,9.64
2024-02-03T12:09:51.618Z,9.62
2024-02-03T12:10:51.591Z,9.64
2024-02-03T12:11:51.576Z,9.66
2024-02-03T12:12:51.649Z,9.66
2024-02-03T12:13:51.573Z,9.66
2024-02-03T12:14:51.566Z,9.66
2024-02-03T12:15:51.579Z,9.68
2024-02-03T12:16:51.553Z,9.72
2024-02-03T12:17:51.611Z,9.73
2024-02-03T12:18:51.587Z,9.77
2024-02-03T12:19:51.666Z,9.80
2024-02-03T12:20:51.493Z,9.83
2024-02-03T12:21:51.538Z,9.82
2024-02-03T12:22:51.515Z,9.82
2024-02-03T12:23:51.452Z,9.84
2024-02-03T12:24:51.488Z,9.91
2024-02-03T12:25:51.466Z,9.87
2024-02-03T12:26:51.438Z,9.87
2024-02-03T12:27:51.647Z,9.91
2024-02-03T12:28:51.498Z,9.87
2024-02-03T12:29:51.384Z,9.92
2024-02-03T12:30:51.472Z,9.94
2024-02-03T12:31:51.395Z,9.91
2024-02-03T12:32:51.414Z,9.91
2024-02-03T12:33:51.426Z,9.89
2024-02-03T12:34:51.487Z,9.94
2024-02-03T12:35:51.323Z,9.92
2024-02-03T12:36:51.358Z,9.98
2024-02-03T12:37:51.306Z,9.95
2024-02-03T12:38:51.307Z,9.97
2024-02-03T12:39:51.367Z,9.97
2024-02-03T12:40:51.339Z,9.98
2024-02-03T12:41:51.319Z,9.98
2024-02-03T12:42:51.296Z,9.97
2024-02-03T12:43:51.235Z,9.99
2024-02-03T12:44:51.274Z,9.97
2024-02-03T12:45:51.289Z,9.95
2024-02-03T12:46:51.239Z,9.97
2024-02-03T12:47:51.194Z,9.97
2024-02-03T12:48:51.274Z,9.95
2024-02-03T12:49:51.289Z,9.92
2024-02-03T12:50:51.291Z,9.91
2024-02-03T12:51:51.261Z,9.89
2024-02-03T12:52:51.150Z,9.89
2024-02-03T12:53:51.133Z,9.89
2024-02-03T12:54:51.148Z,9.84
2024-02-03T12:55:51.122Z,9.83
2024-02-03T12:56:51.103Z,9.80
2024-02-03T12:57:51.238Z,9.76
2024-02-03T12:58:51.121Z,9.69
2024-02-03T12:59:51.068Z,9.72
2024-02-03T13:00:51.126Z,9.72
2024-02-03T13:01:51.050Z,9.72
2024-02-03T13:02:51.085Z,9.72
2024-02-03T13:03:51.153Z,9.73
2024-02-03T13:04:51.029Z,9.79
2024-02-03T13:05:51.065Z,9.80
2024-02-03T13:06:51.079Z,9.84
2024-02-03T13:07:51.012Z,9.83
2024-02-03T13:08:50.995Z,9.82
2024-02-03T13:09:51.019Z,9.80
2024-02-03T13:10:50.994Z,9.80
2024-02-03T13:11:50.933Z,9.83
2024-02-03T13:12:51.064Z,9.83
2024-02-03T13:13:50.929Z,9.82
2024-02-03T13:14:50.937Z,9.80
2024-02-03T13:15:50.919Z,9.82
2024-02-03T13:16:50.884Z,9.77
2024-02-03T13:17:50.903Z,9.74
2024-02-03T13:18:50.920Z,9.72
2024-02-03T13:19:50.986Z,9.73
2024-02-03T13:20:50.874Z,9.72
2024-02-03T13:21:50.929Z,9.74
2024-02-03T13:22:50.830Z,9.69